sensor_id;sensor_type;location;lat;lon;timestamp;P1;durP1;ratioP1;P2;durP2;ratioP2
33802;SDS011;20110;53.120;5.786;2022-10-16T00:01:12;3.45;;;1.00;;
33802;SDS011;20110;53.120;5.786;2022-10-16T00:03:40;7.68;;;1.58;;
33802;SDS011;20110;53.120;5.786;2022-10-16T00:06:08;2.33;;;1.05;;
33802;SDS011;20110;53.120;5.786;2022-10-16T00:08:36;5.30;;;1.23;;
33802;SDS011;20110;53.120;5.786;2022-10-16T00:11:04;9.45;;;1.23;;
33802;SDS011;20110;53.120;5.786;2022-10-16T00:13:59;1.63;;;1.00;;
33802;SDS011;20110;53.120;5.786;2022-10-16T00:16:28;5.40;;;1.27;;
33802;SDS011;20110;53.120;5.786;2022-10-16T00:18:55;10.50;;;1.27;;
33802;SDS011;20110;53.120;5.786;2022-10-16T00:21:23;13.30;;;1.30;;
33802;SDS011;20110;53.120;5.786;2022-10-16T00:23:52;2.95;;;0.68;;
33802;SDS011;20110;53.120;5.786;2022-10-16T00:26:24;8.43;;;1.38;;
33802;SDS011;20110;53.120;5.786;2022-10-16T00:28:50;6.10;;;1.00;;
33802;SDS011;20110;53.120;5.786;2022-10-16T00:31:18;3.75;;;0.98;;
33802;SDS011;20110;53.120;5.786;2022-10-16T00:33:47;7.43;;;1.23;;
33802;SDS011;20110;53.120;5.786;2022-10-16T00:36:15;3.95;;;0.93;;
33802;SDS011;20110;53.120;5.786;2022-10-16T00:38:44;4.72;;;1.23;;
33802;SDS011;20110;53.120;5.786;2022-10-16T00:41:11;5.50;;;1.60;;
33802;SDS011;20110;53.120;5.786;2022-10-16T00:43:42;3.28;;;0.88;;
33802;SDS011;20110;53.120;5.786;2022-10-16T00:46:19;3.03;;;1.00;;
33802;SDS011;20110;53.120;5.786;2022-10-16T00:49:03;4.72;;;0.85;;
33802;SDS011;20110;53.120;5.786;2022-10-16T00:51:49;1.95;;;0.70;;
33802;SDS011;20110;53.120;5.786;2022-10-16T00:54:23;8.43;;;1.02;;
33802;SDS011;20110;53.120;5.786;2022-10-16T00:59:43;1.63;;;0.80;;
33802;SDS011;20110;53.120;5.786;2022-10-16T01:02:11;9.43;;;1.38;;
33802;SDS011;20110;53.120;5.786;2022-10-16T01:04:44;2.97;;;2.72;;
33802;SDS011;20110;53.120;5.786;2022-10-16T01:07:34;4.35;;;1.10;;
33802;SDS011;20110;53.120;5.786;2022-10-16T01:13:42;1.88;;;1.38;;
33802;SDS011;20110;53.120;5.786;2022-10-16T01:16:57;2.47;;;1.10;;
33802;SDS011;20110;53.120;5.786;2022-10-16T01:19:14;1.75;;;1.20;;
33802;SDS011;20110;53.120;5.786;2022-10-16T01:21:54;2.55;;;2.30;;
33802;SDS011;20110;53.120;5.786;2022-10-16T01:24:27;1.70;;;1.58;;
33802;SDS011;20110;53.120;5.786;2022-10-16T01:27:05;5.25;;;1.13;;
33802;SDS011;20110;53.120;5.786;2022-10-16T01:29:52;6.40;;;2.83;;
33802;SDS011;20110;53.120;5.786;2022-10-16T01:35:29;2.55;;;1.52;;
33802;SDS011;20110;53.120;5.786;2022-10-16T01:38:10;2.05;;;1.10;;
33802;SDS011;20110;53.120;5.786;2022-10-16T01:40:42;2.63;;;1.33;;
33802;SDS011;20110;53.120;5.786;2022-10-16T01:43:16;3.88;;;1.50;;
33802;SDS011;20110;53.120;5.786;2022-10-16T01:48:18;6.85;;;1.55;;
33802;SDS011;20110;53.120;5.786;2022-10-16T01:50:59;1.90;;;1.60;;
33802;SDS011;20110;53.120;5.786;2022-10-16T01:53:31;2.85;;;1.40;;
33802;SDS011;20110;53.120;5.786;2022-10-16T01:55:58;3.22;;;1.98;;
33802;SDS011;20110;53.120;5.786;2022-10-16T01:58:27;4.90;;;1.58;;
33802;SDS011;20110;53.120;5.786;2022-10-16T02:00:59;12.38;;;1.50;;
33802;SDS011;20110;53.120;5.786;2022-10-16T02:03:29;5.75;;;1.10;;
33802;SDS011;20110;53.120;5.786;2022-10-16T02:05:58;8.98;;;1.50;;
33802;SDS011;20110;53.120;5.786;2022-10-16T02:08:24;7.55;;;1.27;;
33802;SDS011;20110;53.120;5.786;2022-10-16T02:10:57;5.65;;;1.40;;
33802;SDS011;20110;53.120;5.786;2022-10-16T02:16:10;4.75;;;1.33;;
33802;SDS011;20110;53.120;5.786;2022-10-16T02:18:39;1.10;;;1.00;;
33802;SDS011;20110;53.120;5.786;2022-10-16T02:22:09;5.55;;;1.40;;
33802;SDS011;20110;53.120;5.786;2022-10-16T02:26:52;4.68;;;1.20;;
33802;SDS011;20110;53.120;5.786;2022-10-16T02:29:30;3.97;;;1.40;;
33802;SDS011;20110;53.120;5.786;2022-10-16T02:32:00;2.90;;;1.60;;
33802;SDS011;20110;53.120;5.786;2022-10-16T02:34:30;4.18;;;1.33;;
33802;SDS011;20110;53.120;5.786;2022-10-16T02:36:58;2.58;;;1.40;;
33802;SDS011;20110;53.120;5.786;2022-10-16T02:39:29;5.45;;;1.42;;
33802;SDS011;20110;53.120;5.786;2022-10-16T02:41:56;3.20;;;1.58;;
33802;SDS011;20110;53.120;5.786;2022-10-16T02:44:21;2.30;;;1.42;;
33802;SDS011;20110;53.120;5.786;2022-10-16T02:46:47;5.22;;;1.70;;
33802;SDS011;20110;53.120;5.786;2022-10-16T02:49:13;4.05;;;1.42;;
33802;SDS011;20110;53.120;5.786;2022-10-16T02:51:39;3.35;;;1.27;;
33802;SDS011;20110;53.120;5.786;2022-10-16T02:54:04;6.57;;;1.85;;
33802;SDS011;20110;53.120;5.786;2022-10-16T02:56:30;3.50;;;1.42;;
33802;SDS011;20110;53.120;5.786;2022-10-16T02:58:56;3.65;;;1.48;;
33802;SDS011;20110;53.120;5.786;2022-10-16T03:01:23;2.13;;;1.33;;
33802;SDS011;20110;53.120;5.786;2022-10-16T03:03:49;3.78;;;1.27;;
33802;SDS011;20110;53.120;5.786;2022-10-16T03:06:15;4.13;;;1.17;;
33802;SDS011;20110;53.120;5.786;2022-10-16T03:08:41;4.63;;;1.50;;
33802;SDS011;20110;53.120;5.786;2022-10-16T03:11:07;8.50;;;1.58;;
33802;SDS011;20110;53.120;5.786;2022-10-16T03:13:33;1.48;;;1.35;;
33802;SDS011;20110;53.120;5.786;2022-10-16T03:15:59;3.63;;;1.30;;
33802;SDS011;20110;53.120;5.786;2022-10-16T03:18:25;1.50;;;1.10;;
33802;SDS011;20110;53.120;5.786;2022-10-16T03:20:50;6.45;;;1.40;;
33802;SDS011;20110;53.120;5.786;2022-10-16T03:23:16;2.25;;;1.00;;
33802;SDS011;20110;53.120;5.786;2022-10-16T03:25:42;1.40;;;0.85;;
33802;SDS011;20110;53.120;5.786;2022-10-16T03:28:08;2.42;;;1.10;;
33802;SDS011;20110;53.120;5.786;2022-10-16T03:30:34;5.85;;;1.13;;
33802;SDS011;20110;53.120;5.786;2022-10-16T03:32:59;7.45;;;1.95;;
33802;SDS011;20110;53.120;5.786;2022-10-16T03:35:25;1.30;;;0.68;;
33802;SDS011;20110;53.120;5.786;2022-10-16T03:37:51;1.05;;;0.77;;
33802;SDS011;20110;53.120;5.786;2022-10-16T03:40:17;1.65;;;0.93;;
33802;SDS011;20110;53.120;5.786;2022-10-16T03:42:44;5.45;;;0.90;;
33802;SDS011;20110;53.120;5.786;2022-10-16T03:45:10;2.47;;;1.63;;
33802;SDS011;20110;53.120;5.786;2022-10-16T03:47:36;2.30;;;1.10;;
33802;SDS011;20110;53.120;5.786;2022-10-16T03:50:02;1.70;;;1.50;;
33802;SDS011;20110;53.120;5.786;2022-10-16T03:52:30;4.00;;;1.10;;
33802;SDS011;20110;53.120;5.786;2022-10-16T03:54:57;1.95;;;0.90;;
33802;SDS011;20110;53.120;5.786;2022-10-16T03:57:23;1.63;;;1.10;;
33802;SDS011;20110;53.120;5.786;2022-10-16T03:59:49;7.40;;;1.58;;
33802;SDS011;20110;53.120;5.786;2022-10-16T04:02:15;2.53;;;1.60;;
33802;SDS011;20110;53.120;5.786;2022-10-16T04:04:41;4.72;;;1.50;;
33802;SDS011;20110;53.120;5.786;2022-10-16T04:07:07;2.92;;;1.08;;
33802;SDS011;20110;53.120;5.786;2022-10-16T04:09:33;2.47;;;1.00;;
33802;SDS011;20110;53.120;5.786;2022-10-16T04:11:59;4.10;;;1.48;;
33802;SDS011;20110;53.120;5.786;2022-10-16T04:14:24;2.08;;;1.35;;
33802;SDS011;20110;53.120;5.786;2022-10-16T04:16:50;5.85;;;1.30;;
33802;SDS011;20110;53.120;5.786;2022-10-16T04:19:16;1.48;;;1.00;;
33802;SDS011;20110;53.120;5.786;2022-10-16T04:21:42;2.28;;;1.27;;
33802;SDS011;20110;53.120;5.786;2022-10-16T04:24:07;6.32;;;1.40;;
33802;SDS011;20110;53.120;5.786;2022-10-16T04:26:33;2.63;;;1.20;;
33802;SDS011;20110;53.120;5.786;2022-10-16T04:28:59;4.43;;;0.98;;
33802;SDS011;20110;53.120;5.786;2022-10-16T04:31:25;2.95;;;1.10;;
33802;SDS011;20110;53.120;5.786;2022-10-16T04:33:50;2.88;;;0.95;;
33802;SDS011;20110;53.120;5.786;2022-10-16T04:36:16;8.90;;;1.10;;
33802;SDS011;20110;53.120;5.786;2022-10-16T04:38:42;3.58;;;1.17;;
33802;SDS011;20110;53.120;5.786;2022-10-16T04:41:08;3.67;;;1.35;;
33802;SDS011;20110;53.120;5.786;2022-10-16T04:43:34;3.75;;;1.15;;
33802;SDS011;20110;53.120;5.786;2022-10-16T04:46:00;2.70;;;1.17;;
33802;SDS011;20110;53.120;5.786;2022-10-16T04:48:26;6.20;;;1.33;;
33802;SDS011;20110;53.120;5.786;2022-10-16T04:50:53;2.47;;;0.93;;
33802;SDS011;20110;53.120;5.786;2022-10-16T04:53:18;2.97;;;1.25;;
33802;SDS011;20110;53.120;5.786;2022-10-16T04:55:45;6.60;;;1.40;;
33802;SDS011;20110;53.120;5.786;2022-10-16T04:58:10;2.08;;;1.30;;
33802;SDS011;20110;53.120;5.786;2022-10-16T05:00:36;4.88;;;1.45;;
33802;SDS011;20110;53.120;5.786;2022-10-16T05:03:03;3.63;;;1.42;;
33802;SDS011;20110;53.120;5.786;2022-10-16T05:05:32;5.35;;;1.92;;
33802;SDS011;20110;53.120;5.786;2022-10-16T05:07:58;4.82;;;1.80;;
33802;SDS011;20110;53.120;5.786;2022-10-16T05:10:24;4.25;;;2.25;;
33802;SDS011;20110;53.120;5.786;2022-10-16T05:12:50;3.17;;;2.03;;
33802;SDS011;20110;53.120;5.786;2022-10-16T05:15:16;3.22;;;1.73;;
33802;SDS011;20110;53.120;5.786;2022-10-16T05:17:43;5.47;;;1.92;;
33802;SDS011;20110;53.120;5.786;2022-10-16T05:20:09;7.68;;;2.63;;
33802;SDS011;20110;53.120;5.786;2022-10-16T05:22:36;8.02;;;2.17;;
33802;SDS011;20110;53.120;5.786;2022-10-16T05:25:01;8.40;;;2.35;;
33802;SDS011;20110;53.120;5.786;2022-10-16T05:27:27;5.43;;;2.00;;
33802;SDS011;20110;53.120;5.786;2022-10-16T05:29:53;2.47;;;2.08;;
33802;SDS011;20110;53.120;5.786;2022-10-16T05:32:19;2.75;;;1.92;;
33802;SDS011;20110;53.120;5.786;2022-10-16T05:34:45;6.70;;;2.65;;
33802;SDS011;20110;53.120;5.786;2022-10-16T05:37:11;3.40;;;3.10;;
33802;SDS011;20110;53.120;5.786;2022-10-16T05:39:40;3.67;;;2.33;;
33802;SDS011;20110;53.120;5.786;2022-10-16T05:42:06;3.10;;;2.47;;
33802;SDS011;20110;53.120;5.786;2022-10-16T05:44:32;3.15;;;2.00;;
33802;SDS011;20110;53.120;5.786;2022-10-16T05:46:57;5.63;;;1.75;;
33802;SDS011;20110;53.120;5.786;2022-10-16T05:49:23;5.05;;;2.03;;
33802;SDS011;20110;53.120;5.786;2022-10-16T05:51:49;3.97;;;1.60;;
33802;SDS011;20110;53.120;5.786;2022-10-16T05:54:15;5.32;;;1.73;;
33802;SDS011;20110;53.120;5.786;2022-10-16T05:56:41;5.22;;;2.40;;
33802;SDS011;20110;53.120;5.786;2022-10-16T05:59:07;3.25;;;2.25;;
33802;SDS011;20110;53.120;5.786;2022-10-16T06:01:33;4.82;;;2.40;;
33802;SDS011;20110;53.120;5.786;2022-10-16T06:04:00;3.15;;;2.08;;
33802;SDS011;20110;53.120;5.786;2022-10-16T06:06:26;1.95;;;1.77;;
33802;SDS011;20110;53.120;5.786;2022-10-16T06:08:54;3.05;;;2.00;;
33802;SDS011;20110;53.120;5.786;2022-10-16T06:11:22;3.72;;;1.88;;
33802;SDS011;20110;53.120;5.786;2022-10-16T06:13:55;3.50;;;2.25;;
33802;SDS011;20110;53.120;5.786;2022-10-16T06:16:27;5.70;;;2.45;;
33802;SDS011;20110;53.120;5.786;2022-10-16T06:18:53;3.83;;;2.33;;
33802;SDS011;20110;53.120;5.786;2022-10-16T06:21:21;4.72;;;1.85;;
33802;SDS011;20110;53.120;5.786;2022-10-16T06:23:50;6.85;;;1.95;;
33802;SDS011;20110;53.120;5.786;2022-10-16T06:26:18;7.80;;;1.92;;
33802;SDS011;20110;53.120;5.786;2022-10-16T06:28:46;4.38;;;2.42;;
33802;SDS011;20110;53.120;5.786;2022-10-16T06:31:13;3.72;;;2.17;;
33802;SDS011;20110;53.120;5.786;2022-10-16T06:33:40;3.05;;;1.55;;
33802;SDS011;20110;53.120;5.786;2022-10-16T06:36:09;4.43;;;1.67;;
33802;SDS011;20110;53.120;5.786;2022-10-16T06:38:37;6.80;;;1.88;;
33802;SDS011;20110;53.120;5.786;2022-10-16T06:41:04;6.10;;;1.50;;
33802;SDS011;20110;53.120;5.786;2022-10-16T06:43:32;4.78;;;1.48;;
33802;SDS011;20110;53.120;5.786;2022-10-16T06:46:02;3.30;;;1.40;;
33802;SDS011;20110;53.120;5.786;2022-10-16T06:48:33;5.75;;;1.40;;
33802;SDS011;20110;53.120;5.786;2022-10-16T06:53:44;10.10;;;1.67;;
33802;SDS011;20110;53.120;5.786;2022-10-16T06:56:23;2.33;;;2.03;;
33802;SDS011;20110;53.120;5.786;2022-10-16T06:58:52;18.45;;;1.77;;
33802;SDS011;20110;53.120;5.786;2022-10-16T07:01:19;2.63;;;2.20;;
33802;SDS011;20110;53.120;5.786;2022-10-16T07:03:48;3.22;;;1.35;;
33802;SDS011;20110;53.120;5.786;2022-10-16T07:06:15;4.07;;;1.90;;
33802;SDS011;20110;53.120;5.786;2022-10-16T07:08:45;3.55;;;2.15;;
33802;SDS011;20110;53.120;5.786;2022-10-16T07:11:13;4.07;;;1.67;;
33802;SDS011;20110;53.120;5.786;2022-10-16T07:13:42;4.63;;;2.55;;
33802;SDS011;20110;53.120;5.786;2022-10-16T07:16:16;3.97;;;1.25;;
33802;SDS011;20110;53.120;5.786;2022-10-16T07:21:12;6.55;;;2.38;;
33802;SDS011;20110;53.120;5.786;2022-10-16T07:23:41;7.38;;;1.63;;
33802;SDS011;20110;53.120;5.786;2022-10-16T07:26:08;3.88;;;1.83;;
33802;SDS011;20110;53.120;5.786;2022-10-16T07:28:35;4.70;;;1.85;;
33802;SDS011;20110;53.120;5.786;2022-10-16T07:31:02;4.63;;;1.98;;
33802;SDS011;20110;53.120;5.786;2022-10-16T07:33:31;3.15;;;2.22;;
33802;SDS011;20110;53.120;5.786;2022-10-16T07:35:57;3.65;;;1.90;;
33802;SDS011;20110;53.120;5.786;2022-10-16T07:38:23;3.92;;;2.55;;
33802;SDS011;20110;53.120;5.786;2022-10-16T07:40:55;5.93;;;3.15;;
33802;SDS011;20110;53.120;5.786;2022-10-16T07:43:24;5.38;;;2.92;;
33802;SDS011;20110;53.120;5.786;2022-10-16T07:45:51;6.28;;;2.63;;
33802;SDS011;20110;53.120;5.786;2022-10-16T07:48:18;4.63;;;3.67;;
33802;SDS011;20110;53.120;5.786;2022-10-16T07:50:45;4.63;;;2.90;;
33802;SDS011;20110;53.120;5.786;2022-10-16T07:53:11;2.55;;;1.70;;
33802;SDS011;20110;53.120;5.786;2022-10-16T07:55:37;2.75;;;2.13;;
33802;SDS011;20110;53.120;5.786;2022-10-16T07:58:03;3.40;;;1.63;;
33802;SDS011;20110;53.120;5.786;2022-10-16T08:00:30;2.80;;;2.53;;
33802;SDS011;20110;53.120;5.786;2022-10-16T08:02:57;4.30;;;2.17;;
33802;SDS011;20110;53.120;5.786;2022-10-16T08:05:26;3.22;;;1.67;;
33802;SDS011;20110;53.120;5.786;2022-10-16T08:07:54;2.92;;;1.52;;
33802;SDS011;20110;53.120;5.786;2022-10-16T08:10:21;5.32;;;1.38;;
33802;SDS011;20110;53.120;5.786;2022-10-16T08:12:49;1.92;;;1.83;;
33802;SDS011;20110;53.120;5.786;2022-10-16T08:15:16;7.18;;;1.65;;
33802;SDS011;20110;53.120;5.786;2022-10-16T08:17:43;5.15;;;1.90;;
33802;SDS011;20110;53.120;5.786;2022-10-16T08:20:09;8.23;;;2.28;;
33802;SDS011;20110;53.120;5.786;2022-10-16T08:22:36;6.05;;;1.80;;
33802;SDS011;20110;53.120;5.786;2022-10-16T08:25:02;8.82;;;2.28;;
33802;SDS011;20110;53.120;5.786;2022-10-16T08:27:34;5.55;;;2.00;;
33802;SDS011;20110;53.120;5.786;2022-10-16T08:29:59;5.32;;;2.08;;
33802;SDS011;20110;53.120;5.786;2022-10-16T08:32:25;10.88;;;2.25;;
33802;SDS011;20110;53.120;5.786;2022-10-16T08:34:51;4.55;;;2.13;;
33802;SDS011;20110;53.120;5.786;2022-10-16T08:37:17;9.35;;;2.65;;
33802;SDS011;20110;53.120;5.786;2022-10-16T08:39:42;6.70;;;1.85;;
33802;SDS011;20110;53.120;5.786;2022-10-16T08:50:46;5.05;;;1.63;;
33802;SDS011;20110;53.120;5.786;2022-10-16T08:53:17;14.35;;;2.38;;
33802;SDS011;20110;53.120;5.786;2022-10-16T08:55:52;5.80;;;1.67;;
33802;SDS011;20110;53.120;5.786;2022-10-16T08:58:20;7.38;;;1.77;;
33802;SDS011;20110;53.120;5.786;2022-10-16T09:00:55;13.23;;;1.83;;
33802;SDS011;20110;53.120;5.786;2022-10-16T09:06:39;8.20;;;2.58;;
33802;SDS011;20110;53.120;5.786;2022-10-16T09:09:40;7.25;;;2.13;;
33802;SDS011;20110;53.120;5.786;2022-10-16T09:12:36;11.63;;;2.65;;
33802;SDS011;20110;53.120;5.786;2022-10-16T09:20:59;13.05;;;2.08;;
33802;SDS011;20110;53.120;5.786;2022-10-16T09:23:52;8.60;;;1.80;;
33802;SDS011;20110;53.120;5.786;2022-10-16T09:26:23;2.20;;;1.70;;
33802;SDS011;20110;53.120;5.786;2022-10-16T09:28:51;4.38;;;2.03;;
33802;SDS011;20110;53.120;5.786;2022-10-16T09:31:19;8.38;;;2.20;;
33802;SDS011;20110;53.120;5.786;2022-10-16T09:33:51;7.28;;;2.17;;
33802;SDS011;20110;53.120;5.786;2022-10-16T09:36:23;5.30;;;2.20;;
33802;SDS011;20110;53.120;5.786;2022-10-16T09:39:01;5.05;;;1.77;;
33802;SDS011;20110;53.120;5.786;2022-10-16T09:41:34;13.40;;;2.00;;
33802;SDS011;20110;53.120;5.786;2022-10-16T09:44:04;14.93;;;2.58;;
33802;SDS011;20110;53.120;5.786;2022-10-16T09:47:10;6.00;;;2.05;;
33802;SDS011;20110;53.120;5.786;2022-10-16T09:49:54;6.40;;;2.85;;
33802;SDS011;20110;53.120;5.786;2022-10-16T09:52:30;13.32;;;2.00;;
33802;SDS011;20110;53.120;5.786;2022-10-16T09:55:02;8.75;;;1.75;;
33802;SDS011;20110;53.120;5.786;2022-10-16T09:57:50;9.18;;;1.60;;
33802;SDS011;20110;53.120;5.786;2022-10-16T10:00:18;8.35;;;1.80;;
33802;SDS011;20110;53.120;5.786;2022-10-16T10:02:45;11.52;;;2.35;;
33802;SDS011;20110;53.120;5.786;2022-10-16T10:05:25;9.48;;;2.03;;
33802;SDS011;20110;53.120;5.786;2022-10-16T10:07:54;13.45;;;1.70;;
33802;SDS011;20110;53.120;5.786;2022-10-16T10:10:31;8.60;;;1.48;;
33802;SDS011;20110;53.120;5.786;2022-10-16T10:13:02;12.90;;;2.70;;
33802;SDS011;20110;53.120;5.786;2022-10-16T10:15:30;13.18;;;2.60;;
33802;SDS011;20110;53.120;5.786;2022-10-16T10:18:01;12.50;;;2.35;;
33802;SDS011;20110;53.120;5.786;2022-10-16T10:20:32;17.30;;;2.45;;
33802;SDS011;20110;53.120;5.786;2022-10-16T10:23:00;10.10;;;2.85;;
33802;SDS011;20110;53.120;5.786;2022-10-16T10:26:03;18.10;;;2.70;;
33802;SDS011;20110;53.120;5.786;2022-10-16T10:46:32;19.70;;;4.10;;
33802;SDS011;20110;53.120;5.786;2022-10-16T10:49:31;19.92;;;3.38;;
33802;SDS011;20110;53.120;5.786;2022-10-16T11:00:39;16.08;;;3.15;;
33802;SDS011;20110;53.120;5.786;2022-10-16T11:06:28;12.65;;;6.25;;
33802;SDS011;20110;53.120;5.786;2022-10-16T11:15:04;7.17;;;1.77;;
33802;SDS011;20110;53.120;5.786;2022-10-16T11:20:24;12.05;;;2.72;;
33802;SDS011;20110;53.120;5.786;2022-10-16T11:26:08;13.48;;;3.05;;
33802;SDS011;20110;53.120;5.786;2022-10-16T11:28:50;14.73;;;2.75;;
33802;SDS011;20110;53.120;5.786;2022-10-16T11:31:23;18.55;;;3.60;;
33802;SDS011;20110;53.120;5.786;2022-10-16T11:36:53;16.20;;;3.05;;
33802;SDS011;20110;53.120;5.786;2022-10-16T11:39:39;15.88;;;2.78;;
33802;SDS011;20110;53.120;5.786;2022-10-16T11:42:10;9.35;;;2.13;;
33802;SDS011;20110;53.120;5.786;2022-10-16T11:47:58;14.70;;;5.20;;
33802;SDS011;20110;53.120;5.786;2022-10-16T11:50:45;9.48;;;2.38;;
33802;SDS011;20110;53.120;5.786;2022-10-16T11:56:11;11.07;;;2.78;;
33802;SDS011;20110;53.120;5.786;2022-10-16T11:58:46;11.68;;;4.82;;
33802;SDS011;20110;53.120;5.786;2022-10-16T12:04:20;9.35;;;2.83;;
33802;SDS011;20110;53.120;5.786;2022-10-16T12:07:20;10.73;;;2.22;;
33802;SDS011;20110;53.120;5.786;2022-10-16T12:09:57;8.50;;;3.75;;
33802;SDS011;20110;53.120;5.786;2022-10-16T12:15:02;11.60;;;2.22;;
33802;SDS011;20110;53.120;5.786;2022-10-16T12:17:52;12.30;;;2.83;;
33802;SDS011;20110;53.120;5.786;2022-10-16T12:25:24;10.55;;;2.47;;
33802;SDS011;20110;53.120;5.786;2022-10-16T12:28:05;8.77;;;2.42;;
33802;SDS011;20110;53.120;5.786;2022-10-16T12:30:52;12.05;;;2.20;;
33802;SDS011;20110;53.120;5.786;2022-10-16T12:33:34;12.90;;;2.45;;
33802;SDS011;20110;53.120;5.786;2022-10-16T12:36:06;9.48;;;1.67;;
33802;SDS011;20110;53.120;5.786;2022-10-16T12:38:57;9.02;;;1.60;;
33802;SDS011;20110;53.120;5.786;2022-10-16T12:41:35;7.80;;;1.77;;
33802;SDS011;20110;53.120;5.786;2022-10-16T12:44:05;12.68;;;2.08;;
33802;SDS011;20110;53.120;5.786;2022-10-16T12:46:51;7.63;;;2.35;;
33802;SDS011;20110;53.120;5.786;2022-10-16T12:49:30;13.63;;;2.08;;
33802;SDS011;20110;53.120;5.786;2022-10-16T12:52:03;6.00;;;1.60;;
33802;SDS011;20110;53.120;5.786;2022-10-16T12:54:36;17.05;;;2.10;;
33802;SDS011;20110;53.120;5.786;2022-10-16T13:00:04;13.15;;;2.10;;
33802;SDS011;20110;53.120;5.786;2022-10-16T13:06:13;14.13;;;1.83;;
33802;SDS011;20110;53.120;5.786;2022-10-16T13:09:27;12.18;;;1.80;;
33802;SDS011;20110;53.120;5.786;2022-10-16T13:15:34;8.10;;;2.03;;
33802;SDS011;20110;53.120;5.786;2022-10-16T13:18:31;8.00;;;1.98;;
33802;SDS011;20110;53.120;5.786;2022-10-16T13:24:13;12.65;;;2.65;;
33802;SDS011;20110;53.120;5.786;2022-10-16T13:30:13;11.30;;;1.83;;
33802;SDS011;20110;53.120;5.786;2022-10-16T13:32:58;11.73;;;2.58;;
33802;SDS011;20110;53.120;5.786;2022-10-16T13:35:46;7.97;;;2.40;;
33802;SDS011;20110;53.120;5.786;2022-10-16T13:38:22;7.65;;;2.05;;
33802;SDS011;20110;53.120;5.786;2022-10-16T13:43:29;7.50;;;2.20;;
33802;SDS011;20110;53.120;5.786;2022-10-16T13:46:20;6.93;;;1.90;;
33802;SDS011;20110;53.120;5.786;2022-10-16T13:48:57;10.80;;;1.77;;
33802;SDS011;20110;53.120;5.786;2022-10-16T13:51:31;9.60;;;1.48;;
33802;SDS011;20110;53.120;5.786;2022-10-16T13:53:58;9.80;;;1.70;;
33802;SDS011;20110;53.120;5.786;2022-10-16T13:56:28;9.52;;;2.08;;
33802;SDS011;20110;53.120;5.786;2022-10-16T13:59:00;12.32;;;1.90;;
33802;SDS011;20110;53.120;5.786;2022-10-16T14:01:46;9.73;;;2.38;;
33802;SDS011;20110;53.120;5.786;2022-10-16T14:04:13;8.00;;;2.10;;
33802;SDS011;20110;53.120;5.786;2022-10-16T14:06:42;9.80;;;2.03;;
33802;SDS011;20110;53.120;5.786;2022-10-16T14:09:24;5.68;;;1.70;;
33802;SDS011;20110;53.120;5.786;2022-10-16T14:11:56;8.13;;;1.70;;
33802;SDS011;20110;53.120;5.786;2022-10-16T14:14:26;9.68;;;1.77;;
33802;SDS011;20110;53.120;5.786;2022-10-16T14:17:31;7.30;;;2.15;;
33802;SDS011;20110;53.120;5.786;2022-10-16T14:20:01;14.93;;;1.75;;
33802;SDS011;20110;53.120;5.786;2022-10-16T14:22:37;15.68;;;2.33;;
33802;SDS011;20110;53.120;5.786;2022-10-16T14:27:44;10.82;;;1.45;;
33802;SDS011;20110;53.120;5.786;2022-10-16T14:30:21;10.75;;;1.63;;
33802;SDS011;20110;53.120;5.786;2022-10-16T14:32:58;9.30;;;1.73;;
33802;SDS011;20110;53.120;5.786;2022-10-16T14:35:44;11.98;;;1.48;;
33802;SDS011;20110;53.120;5.786;2022-10-16T14:38:19;10.68;;;1.70;;
33802;SDS011;20110;53.120;5.786;2022-10-16T14:40:46;7.53;;;1.60;;
33802;SDS011;20110;53.120;5.786;2022-10-16T14:43:14;13.60;;;2.10;;
33802;SDS011;20110;53.120;5.786;2022-10-16T14:45:57;13.57;;;1.55;;
33802;SDS011;20110;53.120;5.786;2022-10-16T14:48:23;12.40;;;2.13;;
33802;SDS011;20110;53.120;5.786;2022-10-16T14:50:49;13.50;;;2.63;;
33802;SDS011;20110;53.120;5.786;2022-10-16T14:53:15;19.60;;;2.75;;
33802;SDS011;20110;53.120;5.786;2022-10-16T14:55:42;13.32;;;1.75;;
33802;SDS011;20110;53.120;5.786;2022-10-16T14:58:18;14.15;;;2.03;;
33802;SDS011;20110;53.120;5.786;2022-10-16T15:00:47;17.02;;;2.03;;
33802;SDS011;20110;53.120;5.786;2022-10-16T15:03:13;14.25;;;2.38;;
33802;SDS011;20110;53.120;5.786;2022-10-16T15:05:40;17.30;;;2.10;;
33802;SDS011;20110;53.120;5.786;2022-10-16T15:08:06;10.80;;;1.67;;
33802;SDS011;20110;53.120;5.786;2022-10-16T15:10:33;18.40;;;1.90;;
33802;SDS011;20110;53.120;5.786;2022-10-16T15:13:06;8.63;;;1.37;;
33802;SDS011;20110;53.120;5.786;2022-10-16T15:15:37;12.07;;;2.22;;
33802;SDS011;20110;53.120;5.786;2022-10-16T15:18:07;13.77;;;1.80;;
33802;SDS011;20110;53.120;5.786;2022-10-16T15:20:34;8.77;;;1.83;;
33802;SDS011;20110;53.120;5.786;2022-10-16T15:23:04;8.80;;;1.52;;
33802;SDS011;20110;53.120;5.786;2022-10-16T15:25:58;18.35;;;2.63;;
33802;SDS011;20110;53.120;5.786;2022-10-16T15:28:24;17.17;;;2.55;;
33802;SDS011;20110;53.120;5.786;2022-10-16T15:30:54;17.60;;;2.22;;
33802;SDS011;20110;53.120;5.786;2022-10-16T15:33:25;13.68;;;2.15;;
33802;SDS011;20110;53.120;5.786;2022-10-16T15:35:54;14.98;;;2.22;;
33802;SDS011;20110;53.120;5.786;2022-10-16T15:38:21;22.08;;;2.45;;
33802;SDS011;20110;53.120;5.786;2022-10-16T15:40:48;12.55;;;1.77;;
33802;SDS011;20110;53.120;5.786;2022-10-16T15:43:14;17.98;;;1.88;;
33802;SDS011;20110;53.120;5.786;2022-10-16T15:45:40;16.67;;;2.08;;
33802;SDS011;20110;53.120;5.786;2022-10-16T15:48:08;13.02;;;2.13;;
33802;SDS011;20110;53.120;5.786;2022-10-16T15:50:38;14.07;;;2.47;;
33802;SDS011;20110;53.120;5.786;2022-10-16T15:53:04;13.52;;;2.72;;
33802;SDS011;20110;53.120;5.786;2022-10-16T15:55:30;11.55;;;2.30;;
33802;SDS011;20110;53.120;5.786;2022-10-16T15:57:56;16.38;;;2.72;;
33802;SDS011;20110;53.120;5.786;2022-10-16T16:00:21;18.10;;;3.42;;
33802;SDS011;20110;53.120;5.786;2022-10-16T16:02:51;18.13;;;3.85;;
33802;SDS011;20110;53.120;5.786;2022-10-16T16:05:19;21.77;;;4.15;;
33802;SDS011;20110;53.120;5.786;2022-10-16T16:07:46;24.33;;;4.20;;
33802;SDS011;20110;53.120;5.786;2022-10-16T16:10:14;16.55;;;3.30;;
33802;SDS011;20110;53.120;5.786;2022-10-16T16:12:40;17.50;;;3.05;;
33802;SDS011;20110;53.120;5.786;2022-10-16T16:15:07;15.15;;;2.78;;
33802;SDS011;20110;53.120;5.786;2022-10-16T16:17:34;13.90;;;2.17;;
33802;SDS011;20110;53.120;5.786;2022-10-16T16:20:02;21.08;;;2.35;;
33802;SDS011;20110;53.120;5.786;2022-10-16T16:22:30;26.20;;;2.72;;
33802;SDS011;20110;53.120;5.786;2022-10-16T16:24:55;18.63;;;2.88;;
33802;SDS011;20110;53.120;5.786;2022-10-16T16:27:21;15.60;;;2.55;;
33802;SDS011;20110;53.120;5.786;2022-10-16T16:29:49;11.05;;;2.10;;
33802;SDS011;20110;53.120;5.786;2022-10-16T16:32:15;21.00;;;2.80;;
33802;SDS011;20110;53.120;5.786;2022-10-16T16:34:41;13.32;;;2.38;;
33802;SDS011;20110;53.120;5.786;2022-10-16T16:37:07;18.60;;;4.68;;
33802;SDS011;20110;53.120;5.786;2022-10-16T16:39:33;15.63;;;3.13;;
33802;SDS011;20110;53.120;5.786;2022-10-16T16:41:59;17.00;;;3.70;;
33802;SDS011;20110;53.120;5.786;2022-10-16T16:44:26;14.00;;;2.75;;
33802;SDS011;20110;53.120;5.786;2022-10-16T16:46:51;19.25;;;3.28;;
33802;SDS011;20110;53.120;5.786;2022-10-16T16:49:17;16.33;;;2.80;;
33802;SDS011;20110;53.120;5.786;2022-10-16T16:51:44;16.50;;;2.40;;
33802;SDS011;20110;53.120;5.786;2022-10-16T16:54:10;13.90;;;3.60;;
33802;SDS011;20110;53.120;5.786;2022-10-16T16:56:37;16.17;;;4.00;;
33802;SDS011;20110;53.120;5.786;2022-10-16T16:59:04;25.15;;;4.20;;
33802;SDS011;20110;53.120;5.786;2022-10-16T17:01:30;16.33;;;4.28;;
33802;SDS011;20110;53.120;5.786;2022-10-16T17:03:56;22.38;;;4.95;;
33802;SDS011;20110;53.120;5.786;2022-10-16T17:06:25;21.17;;;5.53;;
33802;SDS011;20110;53.120;5.786;2022-10-16T17:08:56;20.80;;;4.55;;